< < Back
Terminal Aerodrome Forecast


Current Version              Previous Versions:   1  2  3  4  5  6  7  8  9  

Terminal Aerodrome Forecast

240
FTUS44 KHUN 271218 AAA
TAFHSV
TAF AMD
KHSV 271218Z 2712/2812 VRB03KT 5SM BR FEW004 SCT050
     FM271400 14005KT P6SM SCT025
     FM271800 11005KT P6SM VCTS BKN050CB
     FM280100 VRB03KT P6SM SCT050
     FM280800 VRB02KT 4SM BR FEW250=

Latest METAR

841
SAUS80 KWBC 280600 RRB
MTRHSV
METAR KHSV 280553Z AUTO 12003KT 10SM CLR 25/22 A3009 RMK AO2 SLP181
T02500217 10300 20244 403500217 50003 $


USA.gov is the U.S. government's official web portal to all federal, state and local government web resources and services.